createdAt,value
2019-05-18T00:00:39.054Z,15.07
2019-05-18T00:03:14.142Z,14.87
2019-05-18T00:05:49.234Z,15.27
2019-05-18T00:08:24.368Z,15.93
2019-05-18T00:10:59.396Z,15.70
2019-05-18T00:13:34.617Z,17.27
2019-05-18T00:16:09.590Z,14.97
2019-05-18T00:18:44.667Z,15.10
2019-05-18T00:21:20.000Z,16.50
2019-05-18T00:23:55.093Z,16.47
2019-05-18T00:26:30.071Z,15.43
2019-05-18T00:29:07.940Z,15.07
2019-05-18T00:31:43.028Z,15.77
2019-05-18T00:34:18.191Z,16.73
2019-05-18T00:36:53.520Z,17.47
2019-05-18T00:39:28.702Z,17.53
2019-05-18T00:42:03.786Z,17.10
2019-05-18T00:44:38.805Z,17.47
2019-05-18T00:47:13.879Z,17.77
2019-05-18T00:49:49.201Z,17.50
2019-05-18T00:52:24.280Z,16.67
2019-05-18T00:54:59.405Z,17.10
2019-05-18T00:57:34.505Z,18.70
2019-05-18T01:00:10.305Z,17.13
2019-05-18T01:02:47.904Z,16.37
2019-05-18T01:05:22.940Z,19.30
2019-05-18T01:07:57.937Z,16.87
2019-05-18T01:10:33.782Z,19.10
2019-05-18T01:13:08.799Z,18.50
2019-05-18T01:15:43.821Z,20.30
2019-05-18T01:18:18.921Z,18.70
2019-05-18T01:20:54.232Z,18.80
2019-05-18T01:23:29.492Z,18.77
2019-05-18T01:26:04.718Z,19.67
2019-05-18T01:28:39.818Z,17.90
2019-05-18T01:31:14.900Z,19.80
2019-05-18T01:33:49.898Z,18.90
2019-05-18T01:36:25.023Z,18.83
2019-05-18T01:39:00.018Z,18.70
2019-05-18T01:41:35.462Z,19.40
2019-05-18T01:44:10.467Z,20.90
2019-05-18T01:46:45.464Z,19.20
2019-05-18T01:49:20.574Z,19.00
2019-05-18T01:51:55.569Z,19.63
2019-05-18T01:54:30.706Z,19.60
2019-05-18T01:57:05.909Z,19.73
2019-05-18T01:59:40.891Z,20.47
2019-05-18T02:02:15.914Z,20.30
2019-05-18T02:04:50.935Z,22.30
2019-05-18T02:07:26.063Z,21.27
2019-05-18T02:10:01.186Z,21.53
2019-05-18T02:12:36.203Z,20.87
2019-05-18T02:15:12.342Z,20.97
2019-05-18T02:17:47.540Z,21.87
2019-05-18T02:20:22.656Z,21.80
2019-05-18T02:22:57.751Z,19.70
2019-05-18T02:25:32.844Z,22.30
2019-05-18T02:28:07.818Z,20.43
2019-05-18T02:30:42.896Z,21.50
2019-05-18T02:33:17.952Z,21.30
2019-05-18T02:35:53.047Z,22.77
2019-05-18T02:38:28.057Z,22.20
2019-05-18T02:41:03.361Z,22.30
2019-05-18T02:43:38.418Z,22.27
2019-05-18T02:46:13.445Z,22.00
2019-05-18T02:48:50.687Z,21.10
2019-05-18T02:51:25.256Z,21.40
2019-05-18T02:54:00.360Z,22.27
2019-05-18T02:56:35.494Z,23.13
2019-05-18T02:59:10.477Z,21.33
2019-05-18T03:01:45.533Z,23.10
2019-05-18T03:04:20.561Z,23.60
2019-05-18T03:06:55.743Z,23.90
2019-05-18T03:09:30.737Z,23.20
2019-05-18T03:12:05.890Z,23.33
2019-05-18T03:14:40.873Z,23.90
2019-05-18T03:17:15.892Z,23.57
2019-05-18T03:19:50.974Z,24.83
2019-05-18T03:22:26.037Z,24.47
2019-05-18T03:25:01.037Z,25.00
2019-05-18T03:27:36.182Z,26.57
2019-05-18T03:30:12.709Z,25.83
2019-05-18T03:32:47.830Z,25.73
2019-05-18T03:35:22.826Z,24.03
2019-05-18T03:37:57.838Z,24.70
2019-05-18T03:40:33.142Z,25.30
2019-05-18T03:43:08.151Z,24.10
2019-05-18T03:45:43.257Z,26.03
2019-05-18T03:48:18.293Z,24.73
2019-05-18T03:50:53.332Z,23.20
2019-05-18T03:53:28.345Z,24.40
2019-05-18T03:56:04.331Z,24.50
2019-05-18T03:58:39.465Z,25.53
2019-05-18T04:01:14.590Z,25.83
2019-05-18T04:03:49.611Z,27.03
2019-05-18T04:06:25.653Z,24.70
2019-05-18T04:09:00.673Z,24.37
2019-05-18T04:11:37.164Z,24.40
2019-05-18T04:14:12.431Z,26.17
2019-05-18T04:16:47.425Z,25.83
2019-05-18T04:19:22.562Z,26.03
2019-05-18T04:21:57.684Z,26.70
2019-05-18T04:24:33.008Z,24.60
2019-05-18T04:27:08.003Z,26.70
2019-05-18T04:29:43.314Z,26.57
2019-05-18T04:32:18.315Z,26.93
2019-05-18T04:34:53.450Z,27.30
2019-05-18T04:37:28.555Z,25.70
2019-05-18T04:40:03.723Z,26.17
2019-05-18T04:42:38.860Z,28.63
2019-05-18T04:45:14.112Z,26.60
2019-05-18T04:47:51.374Z,29.57
2019-05-18T04:50:27.168Z,25.63
2019-05-18T04:53:02.290Z,25.83
2019-05-18T04:55:37.623Z,25.80
2019-05-18T04:58:12.647Z,25.57
2019-05-18T05:00:47.843Z,24.80
2019-05-18T05:03:22.946Z,25.47
2019-05-18T05:05:57.949Z,23.67
2019-05-18T05:08:33.168Z,24.33
2019-05-18T05:11:08.180Z,23.33
2019-05-18T05:13:43.889Z,23.43
2019-05-18T05:16:20.040Z,22.57
2019-05-18T05:18:55.214Z,23.30
2019-05-18T05:21:30.783Z,22.57
2019-05-18T05:24:06.326Z,21.47
2019-05-18T05:26:41.465Z,22.17
2019-05-18T05:29:16.578Z,22.27
2019-05-18T05:31:51.613Z,22.70
2019-05-18T05:34:26.610Z,22.03
2019-05-18T05:37:01.739Z,23.03
2019-05-18T05:39:36.740Z,22.40
2019-05-18T05:42:11.931Z,23.40
2019-05-18T05:44:46.997Z,21.67
2019-05-18T05:47:21.994Z,21.47
2019-05-18T05:49:57.029Z,21.53
2019-05-18T05:52:32.013Z,22.30
2019-05-18T05:55:07.762Z,22.83
2019-05-18T05:57:42.865Z,22.80
2019-05-18T06:00:18.120Z,22.67
2019-05-18T06:02:53.415Z,22.67
2019-05-18T06:05:30.353Z,23.30
2019-05-18T06:08:06.429Z,22.70
2019-05-18T06:10:41.556Z,23.90
2019-05-18T06:13:16.533Z,24.07
2019-05-18T06:15:51.615Z,23.70
2019-05-18T06:18:26.870Z,22.47
2019-05-18T06:21:02.010Z,23.10
2019-05-18T06:23:37.353Z,21.97
2019-05-18T06:26:12.449Z,23.90
2019-05-18T06:28:47.519Z,21.53
2019-05-18T06:31:23.283Z,21.53
2019-05-18T06:33:58.468Z,21.40
2019-05-18T06:36:33.823Z,22.37
2019-05-18T06:39:09.855Z,21.00
2019-05-18T06:41:44.999Z,22.17
2019-05-18T06:44:20.162Z,21.30
2019-05-18T06:46:55.199Z,21.30
2019-05-18T06:49:30.344Z,21.17
2019-05-18T06:52:05.638Z,21.80
2019-05-18T06:54:40.718Z,22.33
2019-05-18T06:57:17.388Z,20.20
2019-05-18T06:59:52.795Z,19.90
2019-05-18T07:02:27.878Z,21.57
2019-05-18T07:05:04.134Z,19.90
2019-05-18T07:07:39.561Z,19.43
2019-05-18T07:10:15.377Z,20.47
2019-05-18T07:12:50.542Z,19.00
2019-05-18T07:15:25.678Z,20.57
2019-05-18T07:18:00.767Z,21.23
2019-05-18T07:20:35.884Z,20.97
2019-05-18T07:23:11.103Z,20.80
2019-05-18T07:25:46.184Z,19.83
2019-05-18T07:28:21.320Z,18.97
2019-05-18T07:30:56.424Z,20.17
2019-05-18T07:33:31.765Z,19.10
2019-05-18T07:36:07.446Z,18.93
2019-05-18T07:38:42.571Z,18.23
2019-05-18T07:41:17.803Z,19.20
2019-05-18T07:43:53.341Z,18.20
2019-05-18T07:46:28.374Z,18.13
2019-05-18T07:49:04.661Z,18.57
2019-05-18T07:51:40.208Z,18.30
2019-05-18T07:54:15.384Z,17.70
2019-05-18T07:56:50.766Z,17.40
2019-05-18T07:59:26.104Z,19.00
2019-05-18T08:02:01.195Z,19.43
2019-05-18T08:04:39.687Z,17.37
2019-05-18T08:07:13.081Z,18.27
2019-05-18T08:09:48.190Z,17.23
2019-05-18T08:12:23.189Z,18.00
2019-05-18T08:14:58.371Z,16.83
2019-05-18T08:17:36.035Z,18.00
2019-05-18T08:20:11.765Z,17.33
2019-05-18T08:22:55.485Z,17.13
2019-05-18T08:25:30.650Z,16.10
2019-05-18T08:28:05.761Z,17.13
2019-05-18T08:30:41.037Z,17.00
2019-05-18T08:33:16.120Z,16.73
2019-05-18T08:35:51.265Z,15.97
2019-05-18T08:38:26.288Z,16.10
2019-05-18T08:41:01.453Z,16.30
2019-05-18T08:43:36.567Z,16.50
2019-05-18T08:46:11.733Z,14.33
2019-05-18T08:48:46.979Z,16.03
2019-05-18T08:51:22.479Z,13.63
2019-05-18T08:53:57.866Z,14.77
2019-05-18T08:56:33.260Z,13.93
2019-05-18T08:59:08.277Z,15.13
2019-05-18T09:01:43.947Z,13.67
2019-05-18T09:04:19.044Z,14.50
2019-05-18T09:06:54.079Z,13.83
2019-05-18T09:09:32.791Z,13.50
2019-05-18T09:12:07.841Z,14.20
2019-05-18T09:14:43.049Z,13.03
2019-05-18T09:17:18.070Z,13.90
2019-05-18T09:19:53.113Z,15.30
2019-05-18T09:22:28.261Z,14.37
2019-05-18T09:25:03.318Z,13.73
2019-05-18T09:27:38.597Z,14.03
2019-05-18T09:30:13.951Z,12.60
2019-05-18T09:32:49.251Z,13.87
2019-05-18T09:35:24.260Z,13.33
2019-05-18T09:38:00.249Z,13.73
2019-05-18T09:40:35.433Z,13.40
2019-05-18T09:43:11.616Z,12.90
2019-05-18T09:45:46.653Z,12.70
2019-05-18T09:48:22.438Z,13.27
2019-05-18T09:50:57.595Z,11.80
2019-05-18T09:53:33.407Z,12.93
2019-05-18T09:56:08.796Z,12.27
2019-05-18T09:58:44.961Z,11.77
2019-05-18T10:01:21.299Z,10.63
2019-05-18T10:03:57.333Z,10.90
2019-05-18T10:06:32.491Z,10.27
2019-05-18T10:09:10.836Z,10.80
2019-05-18T10:11:45.957Z,9.83
2019-05-18T10:14:21.062Z,11.23
2019-05-18T10:16:56.121Z,12.03
2019-05-18T10:19:31.349Z,11.00
2019-05-18T10:22:06.397Z,10.50
2019-05-18T10:24:41.476Z,9.80
2019-05-18T10:27:16.503Z,9.63
2019-05-18T10:29:51.587Z,9.80
2019-05-18T10:32:26.758Z,10.60
2019-05-18T10:35:01.829Z,9.87
2019-05-18T10:37:36.902Z,10.27
2019-05-18T10:40:14.678Z,9.93
2019-05-18T10:42:50.042Z,9.93
2019-05-18T10:45:26.545Z,8.87
2019-05-18T10:48:01.710Z,9.13
2019-05-18T10:50:36.780Z,8.57
2019-05-18T10:53:28.458Z,9.30
2019-05-18T10:55:53.775Z,9.47
2019-05-18T10:58:28.872Z,8.13
2019-05-18T11:01:04.384Z,10.00
2019-05-18T11:03:39.731Z,8.50
2019-05-18T11:06:15.005Z,8.87
2019-05-18T11:08:50.942Z,9.30
2019-05-18T11:11:26.066Z,7.53
2019-05-18T11:14:01.475Z,7.50
2019-05-18T11:16:36.496Z,7.40
2019-05-18T11:19:11.829Z,8.10
2019-05-18T11:21:46.834Z,7.23
2019-05-18T11:24:23.315Z,8.33
2019-05-18T11:26:58.338Z,8.80
2019-05-18T11:29:33.702Z,7.37
2019-05-18T11:32:09.931Z,7.30
2019-05-18T11:34:45.434Z,7.73
2019-05-18T11:37:20.488Z,7.43
2019-05-18T11:39:55.630Z,5.93
2019-05-18T11:42:30.618Z,6.40
2019-05-18T11:45:06.797Z,5.40
2019-05-18T11:47:41.931Z,5.50
2019-05-18T11:50:17.547Z,4.70
2019-05-18T11:52:52.803Z,4.30
2019-05-18T11:55:27.818Z,5.20
2019-05-18T11:58:02.809Z,4.73
2019-05-18T12:00:37.971Z,5.20
2019-05-18T12:03:12.996Z,5.37
2019-05-18T12:05:48.087Z,5.13
2019-05-18T12:08:24.141Z,5.50
2019-05-18T12:11:00.239Z,4.70
2019-05-18T12:13:35.205Z,5.00
2019-05-18T12:16:10.325Z,4.73
2019-05-18T12:18:45.432Z,5.00
2019-05-18T12:21:21.917Z,5.60
2019-05-18T12:23:57.130Z,5.10
2019-05-18T12:26:32.243Z,5.40
2019-05-18T12:29:07.273Z,4.33
2019-05-18T12:31:44.385Z,5.00
2019-05-18T12:34:21.351Z,4.70
2019-05-18T12:36:57.163Z,4.40
2019-05-18T12:39:32.279Z,5.03
2019-05-18T12:42:07.786Z,4.27
2019-05-18T12:44:42.974Z,5.50
2019-05-18T12:47:17.949Z,3.80
2019-05-18T12:49:53.078Z,3.80
2019-05-18T12:52:28.176Z,3.20
2019-05-18T12:55:03.336Z,4.43
2019-05-18T12:57:39.385Z,5.20
2019-05-18T13:00:16.640Z,3.40
2019-05-18T13:02:51.806Z,3.47
2019-05-18T13:05:26.917Z,3.57
2019-05-18T13:08:02.029Z,3.50
2019-05-18T13:10:37.408Z,3.40
2019-05-18T13:13:12.431Z,3.10
2019-05-18T13:15:47.655Z,3.60
2019-05-18T13:18:22.754Z,3.63
2019-05-18T13:20:57.886Z,3.20
2019-05-18T13:23:33.004Z,3.77
2019-05-18T13:26:08.134Z,3.47
2019-05-18T13:28:43.231Z,4.13
2019-05-18T13:31:18.332Z,3.63
2019-05-18T13:33:53.311Z,3.00
2019-05-18T13:36:28.522Z,2.50
2019-05-18T13:39:05.631Z,2.67
2019-05-18T13:41:41.472Z,3.23
2019-05-18T13:44:16.560Z,2.90
2019-05-18T13:46:51.742Z,3.90
2019-05-18T13:49:26.808Z,3.73
2019-05-18T13:52:01.829Z,3.60
2019-05-18T13:54:36.817Z,3.73
2019-05-18T13:57:11.845Z,3.17
2019-05-18T13:59:51.654Z,4.47
2019-05-18T14:02:26.776Z,3.57
2019-05-18T14:05:02.049Z,4.80
2019-05-18T14:07:37.243Z,3.00
2019-05-18T14:10:14.091Z,3.20
2019-05-18T14:12:49.308Z,3.77
2019-05-18T14:15:24.341Z,3.50
2019-05-18T14:17:59.484Z,3.50
2019-05-18T14:20:34.502Z,2.63
2019-05-18T14:23:10.659Z,3.50
2019-05-18T14:25:46.258Z,3.20
2019-05-18T14:28:21.587Z,3.20
2019-05-18T14:30:56.558Z,3.50
2019-05-18T14:33:32.631Z,2.90
2019-05-18T14:36:07.686Z,2.90
2019-05-18T14:38:42.696Z,3.50
2019-05-18T14:41:17.788Z,3.60
2019-05-18T14:43:52.765Z,3.73
2019-05-18T14:46:27.898Z,3.77
2019-05-18T14:49:02.891Z,3.43
2019-05-18T14:51:38.022Z,3.17
2019-05-18T14:54:12.994Z,3.10
2019-05-18T14:56:48.132Z,3.07
2019-05-18T14:59:23.096Z,3.00
2019-05-18T15:01:59.335Z,3.10
2019-05-18T15:04:34.334Z,2.90
2019-05-18T15:07:09.643Z,3.47
2019-05-18T15:09:44.679Z,2.97
2019-05-18T15:12:19.739Z,3.10
2019-05-18T15:14:54.812Z,2.30
2019-05-18T15:17:29.993Z,2.57
2019-05-18T15:20:05.456Z,2.80
2019-05-18T15:22:40.554Z,3.13
2019-05-18T15:25:16.306Z,2.50
2019-05-18T15:27:53.185Z,2.50
2019-05-18T15:30:28.433Z,2.40
2019-05-18T15:33:03.593Z,2.70
2019-05-18T15:35:38.725Z,3.60
2019-05-18T15:38:13.786Z,3.90
2019-05-18T15:40:49.674Z,2.50
2019-05-18T15:43:24.732Z,2.43
2019-05-18T15:45:59.682Z,2.30
2019-05-18T15:48:34.991Z,2.50
2019-05-18T15:51:10.191Z,2.60
2019-05-18T15:53:45.260Z,2.43
2019-05-18T15:56:20.368Z,2.47
2019-05-18T15:58:55.443Z,3.00
2019-05-18T16:01:30.530Z,2.77
2019-05-18T16:04:06.666Z,3.57
2019-05-18T16:06:41.808Z,3.40
2019-05-18T16:09:17.027Z,3.57
2019-05-18T16:11:52.040Z,3.60
2019-05-18T16:14:27.165Z,3.40
2019-05-18T16:17:02.288Z,3.83
2019-05-18T16:19:37.441Z,3.73
2019-05-18T16:22:12.452Z,6.63
2019-05-18T16:24:47.672Z,9.13
2019-05-18T16:27:22.699Z,4.43
2019-05-18T16:30:03.187Z,7.00
2019-05-18T16:32:38.250Z,5.40
2019-05-18T16:35:15.261Z,3.90
2019-05-18T16:37:50.297Z,3.27
2019-05-18T16:40:26.658Z,3.60
2019-05-18T16:43:01.648Z,3.23
2019-05-18T16:45:36.634Z,3.53
2019-05-18T16:48:11.638Z,2.90
2019-05-18T16:50:46.620Z,13.17
2019-05-18T16:53:21.737Z,9.50
2019-05-18T16:55:56.928Z,4.90
2019-05-18T16:58:31.911Z,3.63
2019-05-18T17:01:07.396Z,3.43
2019-05-18T17:03:42.634Z,3.23
2019-05-18T17:06:17.722Z,3.40
2019-05-18T17:08:54.072Z,3.30
2019-05-18T17:11:29.073Z,3.20
2019-05-18T17:14:04.674Z,3.00
2019-05-18T17:16:39.849Z,2.70
2019-05-18T17:19:15.029Z,2.70
2019-05-18T17:21:50.303Z,2.80
2019-05-18T17:24:25.405Z,2.77
2019-05-18T17:27:00.451Z,4.70
2019-05-18T17:29:35.721Z,5.70
2019-05-18T17:32:10.756Z,5.93
2019-05-18T17:34:45.846Z,5.27
2019-05-18T17:37:20.935Z,5.83
2019-05-18T17:39:56.085Z,5.37
2019-05-18T17:42:31.349Z,5.80
2019-05-18T17:45:07.277Z,6.37
2019-05-18T17:47:42.710Z,5.07
2019-05-18T17:50:20.576Z,6.00
2019-05-18T17:52:55.587Z,6.23
2019-05-18T17:55:30.707Z,6.50
2019-05-18T17:58:05.807Z,6.80
2019-05-18T18:00:41.809Z,6.70
2019-05-18T18:03:16.930Z,6.50
2019-05-18T18:05:52.738Z,6.97
2019-05-18T18:08:27.882Z,7.73
2019-05-18T18:11:03.301Z,7.77
2019-05-18T18:13:38.450Z,7.30
2019-05-18T18:16:13.765Z,6.57
2019-05-18T18:18:49.442Z,7.37
2019-05-18T18:21:27.026Z,7.37
2019-05-18T18:24:05.191Z,7.37
2019-05-18T18:26:39.056Z,6.53
2019-05-18T18:29:13.603Z,7.07
2019-05-18T18:31:48.872Z,6.90
2019-05-18T18:34:24.083Z,7.97
2019-05-18T18:37:03.136Z,8.20
2019-05-18T18:39:41.143Z,7.00
2019-05-18T18:42:18.876Z,7.23
2019-05-18T18:44:54.344Z,7.60
2019-05-18T18:47:29.667Z,7.77
2019-05-18T18:50:06.572Z,8.90
2019-05-18T18:52:41.863Z,8.63
2019-05-18T18:55:17.009Z,10.03
2019-05-18T18:57:52.010Z,10.17
2019-05-18T19:00:27.411Z,10.97
2019-05-18T19:03:03.772Z,11.50
2019-05-18T19:05:39.114Z,11.20
2019-05-18T19:08:14.170Z,12.20
2019-05-18T19:10:51.626Z,12.50
2019-05-18T19:13:27.389Z,12.33
2019-05-18T19:16:03.265Z,14.50
2019-05-18T19:18:38.580Z,13.90
2019-05-18T19:21:13.915Z,13.53
2019-05-18T19:23:51.936Z,14.47
2019-05-18T19:26:28.196Z,15.20
2019-05-18T19:29:03.548Z,14.47
2019-05-18T19:31:38.841Z,16.60
2019-05-18T19:34:14.099Z,15.80
2019-05-18T19:36:49.748Z,15.80
2019-05-18T19:39:25.091Z,15.83
2019-05-18T19:42:00.511Z,15.90
2019-05-18T19:44:35.974Z,16.27
2019-05-18T19:47:11.532Z,16.90
2019-05-18T19:49:46.824Z,17.10
2019-05-18T19:52:22.130Z,16.30
2019-05-18T19:55:02.541Z,16.83
2019-05-18T19:57:39.291Z,17.67
2019-05-18T20:00:15.252Z,17.53
2019-05-18T20:02:50.761Z,16.83
2019-05-18T20:05:25.851Z,18.37
2019-05-18T20:08:01.052Z,16.30
2019-05-18T20:10:37.274Z,18.60
2019-05-18T20:13:12.459Z,16.60
2019-05-18T20:15:47.712Z,17.23
2019-05-18T20:18:22.848Z,15.80
2019-05-18T20:20:57.991Z,17.07
2019-05-18T20:23:33.758Z,16.27
2019-05-18T20:26:08.985Z,16.23
2019-05-18T20:28:44.411Z,17.30
2019-05-18T20:31:19.464Z,17.90
2019-05-18T20:33:54.632Z,16.43
2019-05-18T20:36:29.762Z,17.70
2019-05-18T20:39:06.047Z,16.60
2019-05-18T20:41:43.713Z,16.70
2019-05-18T20:44:20.605Z,17.17
2019-05-18T20:46:56.581Z,16.00
2019-05-18T20:49:31.705Z,16.67
2019-05-18T20:52:06.880Z,17.47
2019-05-18T20:54:41.876Z,17.77
2019-05-18T20:57:16.910Z,18.17
2019-05-18T20:59:52.192Z,17.70
2019-05-18T21:02:27.210Z,17.63
2019-05-18T21:05:02.300Z,18.97
2019-05-18T21:07:37.354Z,18.80
2019-05-18T21:10:12.938Z,19.33
2019-05-18T21:12:48.064Z,19.40
2019-05-18T21:15:23.141Z,21.57
2019-05-18T21:17:58.327Z,18.60
2019-05-18T21:20:34.376Z,18.50
2019-05-18T21:23:09.537Z,20.03
2019-05-18T21:25:44.553Z,19.13
2019-05-18T21:28:19.621Z,19.90
2019-05-18T21:30:55.685Z,20.50
2019-05-18T21:33:30.801Z,21.50
2019-05-18T21:36:05.838Z,19.10
2019-05-18T21:38:40.846Z,18.47
2019-05-18T21:41:16.017Z,19.77
2019-05-18T21:43:51.148Z,19.77
2019-05-18T21:46:26.157Z,21.30
2019-05-18T21:49:01.410Z,21.50
2019-05-18T21:51:36.493Z,20.73
2019-05-18T21:54:11.607Z,22.83
2019-05-18T21:56:48.029Z,21.60
2019-05-18T21:59:24.067Z,22.17
2019-05-18T22:01:59.185Z,21.30
2019-05-18T22:04:34.332Z,23.60
2019-05-18T22:07:09.377Z,24.17
2019-05-18T22:09:44.363Z,24.73
2019-05-18T22:12:19.495Z,22.80
2019-05-18T22:14:54.774Z,23.73
2019-05-18T22:17:29.956Z,25.50
2019-05-18T22:20:04.988Z,23.83
2019-05-18T22:22:40.051Z,25.17
2019-05-18T22:25:15.584Z,24.27
2019-05-18T22:27:51.402Z,23.27
2019-05-18T22:30:26.561Z,24.33
2019-05-18T22:33:01.672Z,25.00
2019-05-18T22:35:36.744Z,23.80
2019-05-18T22:38:11.867Z,24.90
2019-05-18T22:40:46.989Z,24.87
2019-05-18T22:43:21.997Z,24.23
2019-05-18T22:45:56.980Z,25.20
2019-05-18T22:48:40.998Z,26.00
2019-05-18T22:51:09.594Z,26.47
2019-05-18T22:53:46.547Z,25.53
2019-05-18T22:56:21.369Z,25.80
2019-05-18T22:58:56.485Z,24.73
2019-05-18T23:01:31.461Z,25.97
2019-05-18T23:04:06.466Z,24.40
2019-05-18T23:06:41.587Z,24.57
2019-05-18T23:09:16.769Z,23.43
2019-05-18T23:11:51.877Z,23.87
2019-05-18T23:14:27.964Z,23.70
2019-05-18T23:17:03.023Z,23.60
2019-05-18T23:19:38.127Z,24.87
2019-05-18T23:22:13.147Z,24.60
2019-05-18T23:24:49.106Z,23.67
2019-05-18T23:27:24.142Z,24.37
2019-05-18T23:29:59.610Z,24.13
2019-05-18T23:32:35.573Z,24.63
2019-05-18T23:35:11.148Z,22.77
2019-05-18T23:37:47.451Z,22.90
2019-05-18T23:40:22.547Z,21.77
2019-05-18T23:42:57.538Z,22.43
2019-05-18T23:45:32.642Z,21.30
2019-05-18T23:48:07.654Z,23.43
2019-05-18T23:50:42.628Z,21.67
2019-05-18T23:53:17.653Z,22.07
2019-05-18T23:55:53.443Z,22.43
2019-05-18T23:58:28.947Z,23.57
